CYQXLFVP

Guest
Details From CYQX - GANDER INTL
To LFVP - St Pierre
Flight Number -
Tags generated
Created
Modified
Stats Distance 197 nm / 364 km
Max Altitude 19,300 ft / 5,883 m
Waypoints 3
Social Downloads 0
Likes 0
Share VATSIM

Download

Looking for another format? Having issues loading an existing format? Contact us
Advertisement - Login to hide

Notes

Basic altitude profile: - Ascent Rate: 2500ft/min - Ascent Speed: 250kts - Cruise Altitude: 35000ft - Cruise Speed: 420kts - Descent Rate: 1500ft/min - Descent Speed: 250kts Options: - Use NATs: yes - Use PACOTS: yes - Use low airways: yes - Use high airways: yes

Route

CYQX UWP LFVP

ID Type Via Altitude Latitude Longitude Leg Dist Tot Dist Heading (true) Name
O CYQX APT - 0 ft / 0 m 48.94296˚ -54.56586˚ - 0 nm - GANDER INTL
UWP NDB - 19,300 ft / 5,883 m 47.29472˚ -53.99056˚ 101 nm 101 nm 167° / 167° ARGENTIA NDB
O LFVP APT - 0 ft / 0 m 46.76266˚ -56.17553˚ 94 nm 196 nm 251° / 250° St Pierre

Altitude Profile

Advertisement - Login to hide

Weather


0- 5 10 15 20 25 30 35+ Temperature / ° C

Clouds and Precipitation
Forecast for 2017-12-19 00:00 UTC. Updated an hour ago

Ground ~20,000 ft ~40,000 ft Winds

CYQX

Details ICAO CYQX (YQX)
Name GANDER INTL
Region Canada
Timezone America/St_Johns (UTC-3.5)
Stats Elevation 496 ft / 151 m (AMSL)
Location 48.942962° -54.565864°
Runways 3
Magnetic Variation 18.803° W

METAR

CYQX 182200Z 29014KT 20SM FEW030 FEW180 SCT260 M10/M14 A2988 RMK SC1AC1CI2 SLP131

Decode

TAF

TAF CYQX 181738Z 1818/1918 30012G22KT P6SM BKN030 TEMPO 1818/1824 BKN020 BECMG 1822/1824 24010KT FM190000 24012KT P6SM SCT025 BECMG 1910/1912 19010G20KT FM191600 19008KT P6SM SCT030 BKN080 RMK NXT FCST BY 190000Z

Decode

Departure Runways

ID Width Length Bearing (true) Bearing (mag) Surface Threshold Offset Overrun Length
03 200 ft / 61 m 10,230 ft / 3,118 m 10.93° 29.73° Asphalt 0 ft / 0 m 200 ft / 61 m
09 50 ft / 15 m 1,874 ft / 571 m 62.63° 81.43° Asphalt 0 ft / 0 m 75 ft / 23 m
13 200 ft / 61 m 8,855 ft / 2,699 m 107.30° 126.10° Asphalt 0 ft / 0 m 200 ft / 61 m
21 200 ft / 61 m 10,230 ft / 3,118 m 190.94° 209.74° Asphalt 0 ft / 0 m 199 ft / 61 m
27 50 ft / 15 m 1,874 ft / 571 m 242.64° 261.44° Asphalt 0 ft / 0 m 250 ft / 76 m
31 200 ft / 61 m 8,855 ft / 2,699 m 287.33° 306.13° Asphalt 0 ft / 0 m 201 ft / 61 m

LFVP

Details ICAO LFVP (FSP)
Name St Pierre
Region France
Timezone Unknown (UTC+0.0)
Stats Elevation 27 ft / 8 m (AMSL)
Location 46.762662° -56.175529°
Runways 1
Magnetic Variation 18.222° W

METAR

LFVP 182200Z 29011KT 9999 BKN023 M03/M07 Q1016 NOSIG

Decode

TAF

TAF AMD TAF AMD LFVP 182156Z 1821/1903 CNL

Decode

Destination Runways

ID Width Length Bearing (true) Bearing (mag) Surface Threshold Offset Overrun Length
08 150 ft / 46 m 5,902 ft / 1,799 m 58.48° 76.70° Asphalt 0 ft / 0 m 0 ft / 0 m
26 150 ft / 46 m 5,902 ft / 1,799 m 238.50° 256.72° Asphalt 0 ft / 0 m 0 ft / 0 m